sensor_id;sensor_type;location;lat;lon;timestamp;P1;durP1;ratioP1;P2;durP2;ratioP2
51515;SDS011;37603;55.614;37.326;2024-03-08T00:05:35;6.1;;;2.3;;
51515;SDS011;37603;55.614;37.326;2024-03-08T00:11:34;3.8;;;2.1;;
51515;SDS011;37603;55.614;37.326;2024-03-08T00:17:32;4.9;;;2.3;;
51515;SDS011;37603;55.614;37.326;2024-03-08T00:23:31;7.0;;;2.4;;
51515;SDS011;37603;55.614;37.326;2024-03-08T00:29:30;4.4;;;2.2;;
51515;SDS011;37603;55.614;37.326;2024-03-08T00:35:28;6.5;;;2.5;;
51515;SDS011;37603;55.614;37.326;2024-03-08T00:41:27;7.1;;;2.8;;
51515;SDS011;37603;55.614;37.326;2024-03-08T00:47:25;5.2;;;2.4;;
51515;SDS011;37603;55.614;37.326;2024-03-08T00:53:24;4.4;;;2.4;;
51515;SDS011;37603;55.614;37.326;2024-03-08T00:59:23;5.9;;;2.3;;
51515;SDS011;37603;55.614;37.326;2024-03-08T01:05:21;3.7;;;2.0;;
51515;SDS011;37603;55.614;37.326;2024-03-08T01:11:20;7.0;;;2.6;;
51515;SDS011;37603;55.614;37.326;2024-03-08T01:17:18;5.6;;;2.4;;
51515;SDS011;37603;55.614;37.326;2024-03-08T01:23:17;4.6;;;2.2;;
51515;SDS011;37603;55.614;37.326;2024-03-08T01:29:16;4.2;;;2.2;;
51515;SDS011;37603;55.614;37.326;2024-03-08T01:35:14;7.9;;;2.8;;
51515;SDS011;37603;55.614;37.326;2024-03-08T01:41:13;7.5;;;2.8;;
51515;SDS011;37603;55.614;37.326;2024-03-08T01:47:11;4.5;;;2.2;;
51515;SDS011;37603;55.614;37.326;2024-03-08T01:53:10;2.9;;;1.7;;
51515;SDS011;37603;55.614;37.326;2024-03-08T01:59:08;5.5;;;2.2;;
51515;SDS011;37603;55.614;37.326;2024-03-08T02:05:07;2.8;;;1.9;;
51515;SDS011;37603;55.614;37.326;2024-03-08T02:11:06;3.9;;;1.9;;
51515;SDS011;37603;55.614;37.326;2024-03-08T02:17:04;4.3;;;1.9;;
51515;SDS011;37603;55.614;37.326;2024-03-08T02:23:03;3.8;;;2.0;;
51515;SDS011;37603;55.614;37.326;2024-03-08T02:29:02;4.3;;;2.1;;
51515;SDS011;37603;55.614;37.326;2024-03-08T02:35:00;5.6;;;2.0;;
51515;SDS011;37603;55.614;37.326;2024-03-08T02:40:59;6.5;;;2.3;;
51515;SDS011;37603;55.614;37.326;2024-03-08T02:46:57;4.9;;;2.3;;
51515;SDS011;37603;55.614;37.326;2024-03-08T02:52:56;4.7;;;2.5;;
51515;SDS011;37603;55.614;37.326;2024-03-08T02:58:55;4.8;;;2.2;;
51515;SDS011;37603;55.614;37.326;2024-03-08T03:04:53;6.3;;;2.3;;
51515;SDS011;37603;55.614;37.326;2024-03-08T03:10:52;7.0;;;2.7;;
51515;SDS011;37603;55.614;37.326;2024-03-08T03:16:50;5.4;;;2.4;;
51515;SDS011;37603;55.614;37.326;2024-03-08T03:22:49;4.8;;;2.5;;
51515;SDS011;37603;55.614;37.326;2024-03-08T03:28:48;3.8;;;2.4;;
51515;SDS011;37603;55.614;37.326;2024-03-08T03:34:46;6.2;;;2.5;;
51515;SDS011;37603;55.614;37.326;2024-03-08T03:40:46;5.0;;;2.6;;
51515;SDS011;37603;55.614;37.326;2024-03-08T03:46:43;9.1;;;2.9;;
51515;SDS011;37603;55.614;37.326;2024-03-08T03:52:42;6.4;;;2.7;;
51515;SDS011;37603;55.614;37.326;2024-03-08T03:58:40;9.0;;;3.0;;
51515;SDS011;37603;55.614;37.326;2024-03-08T04:04:39;6.3;;;3.0;;
51515;SDS011;37603;55.614;37.326;2024-03-08T04:10:37;6.2;;;2.5;;
51515;SDS011;37603;55.614;37.326;2024-03-08T04:16:37;5.1;;;2.6;;
51515;SDS011;37603;55.614;37.326;2024-03-08T04:22:34;6.8;;;2.6;;
51515;SDS011;37603;55.614;37.326;2024-03-08T04:28:33;7.4;;;2.7;;
51515;SDS011;37603;55.614;37.326;2024-03-08T04:34:31;4.8;;;2.6;;
51515;SDS011;37603;55.614;37.326;2024-03-08T04:40:30;5.2;;;2.8;;
51515;SDS011;37603;55.614;37.326;2024-03-08T04:46:28;6.6;;;2.3;;
51515;SDS011;37603;55.614;37.326;2024-03-08T04:52:27;4.6;;;2.4;;
51515;SDS011;37603;55.614;37.326;2024-03-08T04:58:26;8.0;;;2.9;;
51515;SDS011;37603;55.614;37.326;2024-03-08T05:04:24;4.8;;;2.9;;
51515;SDS011;37603;55.614;37.326;2024-03-08T05:10:23;5.7;;;2.5;;
51515;SDS011;37603;55.614;37.326;2024-03-08T05:16:21;5.0;;;2.7;;
51515;SDS011;37603;55.614;37.326;2024-03-08T05:22:20;5.5;;;3.0;;
51515;SDS011;37603;55.614;37.326;2024-03-08T05:28:19;8.1;;;3.1;;
51515;SDS011;37603;55.614;37.326;2024-03-08T05:34:17;7.1;;;2.8;;
51515;SDS011;37603;55.614;37.326;2024-03-08T05:40:16;5.7;;;2.8;;
51515;SDS011;37603;55.614;37.326;2024-03-08T05:46:15;6.8;;;2.4;;
51515;SDS011;37603;55.614;37.326;2024-03-08T05:52:13;8.0;;;2.9;;
51515;SDS011;37603;55.614;37.326;2024-03-08T05:58:11;8.4;;;3.4;;
51515;SDS011;37603;55.614;37.326;2024-03-08T06:04:10;6.7;;;2.8;;
51515;SDS011;37603;55.614;37.326;2024-03-08T06:10:09;5.1;;;2.7;;
51515;SDS011;37603;55.614;37.326;2024-03-08T06:16:07;7.6;;;3.2;;
51515;SDS011;37603;55.614;37.326;2024-03-08T06:28:05;7.2;;;2.9;;
51515;SDS011;37603;55.614;37.326;2024-03-08T06:34:03;6.4;;;3.4;;
51515;SDS011;37603;55.614;37.326;2024-03-08T06:40:02;7.2;;;3.0;;
51515;SDS011;37603;55.614;37.326;2024-03-08T06:46:00;7.8;;;3.5;;
51515;SDS011;37603;55.614;37.326;2024-03-08T06:51:59;9.4;;;3.1;;
51515;SDS011;37603;55.614;37.326;2024-03-08T06:57:57;7.5;;;2.9;;
51515;SDS011;37603;55.614;37.326;2024-03-08T07:03:56;10.7;;;3.5;;
51515;SDS011;37603;55.614;37.326;2024-03-08T07:09:55;7.4;;;3.3;;
51515;SDS011;37603;55.614;37.326;2024-03-08T07:15:54;8.1;;;3.7;;
51515;SDS011;37603;55.614;37.326;2024-03-08T07:21:52;6.5;;;3.2;;
51515;SDS011;37603;55.614;37.326;2024-03-08T07:27:51;6.1;;;2.8;;
51515;SDS011;37603;55.614;37.326;2024-03-08T07:33:49;6.9;;;2.9;;
51515;SDS011;37603;55.614;37.326;2024-03-08T07:39:48;9.2;;;4.5;;
51515;SDS011;37603;55.614;37.326;2024-03-08T07:45:47;6.5;;;3.3;;
51515;SDS011;37603;55.614;37.326;2024-03-08T07:51:45;6.9;;;3.2;;
51515;SDS011;37603;55.614;37.326;2024-03-08T07:57:44;8.8;;;3.6;;
51515;SDS011;37603;55.614;37.326;2024-03-08T08:03:43;9.6;;;3.8;;
51515;SDS011;37603;55.614;37.326;2024-03-08T08:09:42;8.3;;;3.7;;
51515;SDS011;37603;55.614;37.326;2024-03-08T08:15:40;7.6;;;3.8;;
51515;SDS011;37603;55.614;37.326;2024-03-08T08:21:39;8.6;;;3.7;;
51515;SDS011;37603;55.614;37.326;2024-03-08T08:27:38;10.0;;;4.3;;
51515;SDS011;37603;55.614;37.326;2024-03-08T08:33:36;8.3;;;3.7;;
51515;SDS011;37603;55.614;37.326;2024-03-08T08:39:35;8.7;;;3.6;;
51515;SDS011;37603;55.614;37.326;2024-03-08T08:45:34;8.3;;;3.7;;
51515;SDS011;37603;55.614;37.326;2024-03-08T08:51:32;7.6;;;3.3;;
51515;SDS011;37603;55.614;37.326;2024-03-08T08:57:31;5.5;;;3.0;;
51515;SDS011;37603;55.614;37.326;2024-03-08T09:03:30;15.6;;;4.2;;
51515;SDS011;37603;55.614;37.326;2024-03-08T09:09:29;12.3;;;7.9;;
51515;SDS011;37603;55.614;37.326;2024-03-08T09:15:27;10.6;;;4.4;;
51515;SDS011;37603;55.614;37.326;2024-03-08T09:21:26;10.2;;;3.8;;
51515;SDS011;37603;55.614;37.326;2024-03-08T09:27:25;9.7;;;3.9;;
51515;SDS011;37603;55.614;37.326;2024-03-08T09:33:24;12.0;;;8.9;;
51515;SDS011;37603;55.614;37.326;2024-03-08T09:39:22;11.3;;;8.9;;
51515;SDS011;37603;55.614;37.326;2024-03-08T09:45:21;11.6;;;8.6;;
51515;SDS011;37603;55.614;37.326;2024-03-08T09:51:20;8.8;;;4.0;;
51515;SDS011;37603;55.614;37.326;2024-03-08T09:57:19;11.4;;;8.6;;
51515;SDS011;37603;55.614;37.326;2024-03-08T10:03:19;9.3;;;4.3;;
51515;SDS011;37603;55.614;37.326;2024-03-08T10:09:16;7.1;;;4.2;;
51515;SDS011;37603;55.614;37.326;2024-03-08T10:15:15;11.3;;;8.4;;
51515;SDS011;37603;55.614;37.326;2024-03-08T10:21:13;12.1;;;8.6;;
51515;SDS011;37603;55.614;37.326;2024-03-08T10:27:12;11.3;;;8.2;;
51515;SDS011;37603;55.614;37.326;2024-03-08T10:33:11;13.7;;;9.1;;
51515;SDS011;37603;55.614;37.326;2024-03-08T10:39:12;11.2;;;8.4;;
51515;SDS011;37603;55.614;37.326;2024-03-08T10:45:11;10.4;;;8.2;;
51515;SDS011;37603;55.614;37.326;2024-03-08T10:51:08;11.6;;;8.5;;
51515;SDS011;37603;55.614;37.326;2024-03-08T10:57:06;11.3;;;8.5;;
51515;SDS011;37603;55.614;37.326;2024-03-08T11:03:05;10.9;;;8.3;;
51515;SDS011;37603;55.614;37.326;2024-03-08T11:09:05;10.2;;;8.0;;
51515;SDS011;37603;55.614;37.326;2024-03-08T11:15:09;9.5;;;7.7;;
51515;SDS011;37603;55.614;37.326;2024-03-08T11:21:02;10.3;;;8.2;;
51515;SDS011;37603;55.614;37.326;2024-03-08T11:27:00;11.1;;;8.2;;
51515;SDS011;37603;55.614;37.326;2024-03-08T11:33:00;9.6;;;8.0;;
51515;SDS011;37603;55.614;37.326;2024-03-08T11:38:58;10.5;;;7.9;;
51515;SDS011;37603;55.614;37.326;2024-03-08T11:44:56;8.9;;;7.5;;
51515;SDS011;37603;55.614;37.326;2024-03-08T11:50:58;10.3;;;8.0;;
51515;SDS011;37603;55.614;37.326;2024-03-08T11:56:54;10.9;;;8.4;;
51515;SDS011;37603;55.614;37.326;2024-03-08T12:08:51;9.9;;;7.9;;
51515;SDS011;37603;55.614;37.326;2024-03-08T12:14:50;10.2;;;7.5;;
51515;SDS011;37603;55.614;37.326;2024-03-08T12:20:49;9.2;;;7.3;;
51515;SDS011;37603;55.614;37.326;2024-03-08T12:26:48;11.9;;;8.7;;
51515;SDS011;37603;55.614;37.326;2024-03-08T12:32:48;9.4;;;7.3;;
51515;SDS011;37603;55.614;37.326;2024-03-08T12:38:45;7.3;;;6.3;;
51515;SDS011;37603;55.614;37.326;2024-03-08T12:44:44;10.1;;;6.7;;
51515;SDS011;37603;55.614;37.326;2024-03-08T12:50:43;9.7;;;6.9;;
51515;SDS011;37603;55.614;37.326;2024-03-08T12:56:42;8.0;;;6.0;;
51515;SDS011;37603;55.614;37.326;2024-03-08T13:02:40;7.6;;;5.9;;
51515;SDS011;37603;55.614;37.326;2024-03-08T13:08:39;8.0;;;6.1;;
51515;SDS011;37603;55.614;37.326;2024-03-08T13:14:40;8.7;;;6.3;;
51515;SDS011;37603;55.614;37.326;2024-03-08T13:20:37;9.4;;;6.8;;
51515;SDS011;37603;55.614;37.326;2024-03-08T13:26:35;7.7;;;6.2;;
51515;SDS011;37603;55.614;37.326;2024-03-08T13:32:34;7.2;;;5.8;;
51515;SDS011;37603;55.614;37.326;2024-03-08T13:38:33;8.0;;;6.0;;
51515;SDS011;37603;55.614;37.326;2024-03-08T13:44:32;7.3;;;5.8;;
51515;SDS011;37603;55.614;37.326;2024-03-08T13:50:31;9.9;;;6.3;;
51515;SDS011;37603;55.614;37.326;2024-03-08T13:56:29;8.1;;;5.9;;
51515;SDS011;37603;55.614;37.326;2024-03-08T14:02:28;7.3;;;5.9;;
51515;SDS011;37603;55.614;37.326;2024-03-08T14:08:27;6.7;;;5.3;;
51515;SDS011;37603;55.614;37.326;2024-03-08T14:14:26;14.9;;;10.4;;
51515;SDS011;37603;55.614;37.326;2024-03-08T14:20:24;15.3;;;11.8;;
51515;SDS011;37603;55.614;37.326;2024-03-08T14:26:23;25.1;;;18.2;;
51515;SDS011;37603;55.614;37.326;2024-03-08T14:32:22;11.8;;;8.5;;
51515;SDS011;37603;55.614;37.326;2024-03-08T14:38:21;7.9;;;5.9;;
51515;SDS011;37603;55.614;37.326;2024-03-08T14:44:20;8.7;;;6.2;;
51515;SDS011;37603;55.614;37.326;2024-03-08T14:50:19;12.0;;;10.3;;
51515;SDS011;37603;55.614;37.326;2024-03-08T14:56:17;9.8;;;7.1;;
51515;SDS011;37603;55.614;37.326;2024-03-08T15:02:16;8.0;;;5.7;;
51515;SDS011;37603;55.614;37.326;2024-03-08T15:08:15;8.7;;;7.3;;
51515;SDS011;37603;55.614;37.326;2024-03-08T15:14:13;17.5;;;15.0;;
51515;SDS011;37603;55.614;37.326;2024-03-08T15:20:12;9.1;;;6.1;;
51515;SDS011;37603;55.614;37.326;2024-03-08T15:26:11;7.8;;;5.9;;
51515;SDS011;37603;55.614;37.326;2024-03-08T15:32:10;7.6;;;6.4;;
51515;SDS011;37603;55.614;37.326;2024-03-08T15:38:09;7.9;;;5.7;;
51515;SDS011;37603;55.614;37.326;2024-03-08T15:44:07;9.1;;;6.2;;
51515;SDS011;37603;55.614;37.326;2024-03-08T15:50:06;7.5;;;5.9;;
51515;SDS011;37603;55.614;37.326;2024-03-08T15:56:05;9.1;;;6.1;;
51515;SDS011;37603;55.614;37.326;2024-03-08T16:02:04;7.4;;;6.1;;
51515;SDS011;37603;55.614;37.326;2024-03-08T16:08:03;8.4;;;6.4;;
51515;SDS011;37603;55.614;37.326;2024-03-08T16:14:01;9.5;;;7.1;;
51515;SDS011;37603;55.614;37.326;2024-03-08T16:20:00;9.1;;;6.6;;
51515;SDS011;37603;55.614;37.326;2024-03-08T16:26:00;9.0;;;7.0;;
51515;SDS011;37603;55.614;37.326;2024-03-08T16:31:57;10.4;;;7.3;;
51515;SDS011;37603;55.614;37.326;2024-03-08T16:37:56;8.9;;;6.6;;
51515;SDS011;37603;55.614;37.326;2024-03-08T16:43:55;8.2;;;6.3;;
51515;SDS011;37603;55.614;37.326;2024-03-08T16:49:54;9.1;;;6.6;;
51515;SDS011;37603;55.614;37.326;2024-03-08T16:55:52;8.3;;;6.4;;
51515;SDS011;37603;55.614;37.326;2024-03-08T17:01:51;8.5;;;6.1;;
51515;SDS011;37603;55.614;37.326;2024-03-08T17:07:50;9.9;;;6.9;;
51515;SDS011;37603;55.614;37.326;2024-03-08T17:13:49;15.8;;;9.2;;
51515;SDS011;37603;55.614;37.326;2024-03-08T17:19:47;13.4;;;8.3;;
51515;SDS011;37603;55.614;37.326;2024-03-08T17:25:46;10.1;;;7.0;;
51515;SDS011;37603;55.614;37.326;2024-03-08T17:31:45;9.2;;;6.5;;
51515;SDS011;37603;55.614;37.326;2024-03-08T17:37:44;8.8;;;6.4;;
51515;SDS011;37603;55.614;37.326;2024-03-08T17:43:42;10.4;;;7.0;;
51515;SDS011;37603;55.614;37.326;2024-03-08T17:49:41;9.0;;;6.9;;
51515;SDS011;37603;55.614;37.326;2024-03-08T17:55:40;8.4;;;6.8;;
51515;SDS011;37603;55.614;37.326;2024-03-08T18:01:38;9.0;;;6.5;;
51515;SDS011;37603;55.614;37.326;2024-03-08T18:07:37;10.4;;;7.2;;
51515;SDS011;37603;55.614;37.326;2024-03-08T18:13:36;13.3;;;8.9;;
51515;SDS011;37603;55.614;37.326;2024-03-08T18:19:34;10.5;;;7.5;;
51515;SDS011;37603;55.614;37.326;2024-03-08T18:25:33;12.6;;;8.6;;
51515;SDS011;37603;55.614;37.326;2024-03-08T18:31:32;13.7;;;8.5;;
51515;SDS011;37603;55.614;37.326;2024-03-08T18:37:31;12.7;;;8.6;;
51515;SDS011;37603;55.614;37.326;2024-03-08T18:43:29;18.0;;;9.8;;
51515;SDS011;37603;55.614;37.326;2024-03-08T18:49:28;10.7;;;4.8;;
51515;SDS011;37603;55.614;37.326;2024-03-08T18:55:27;8.6;;;6.2;;
51515;SDS011;37603;55.614;37.326;2024-03-08T19:01:25;8.9;;;6.1;;
51515;SDS011;37603;55.614;37.326;2024-03-08T19:07:24;7.8;;;5.2;;
51515;SDS011;37603;55.614;37.326;2024-03-08T19:13:23;7.4;;;5.2;;
51515;SDS011;37603;55.614;37.326;2024-03-08T19:19:21;7.3;;;4.7;;
51515;SDS011;37603;55.614;37.326;2024-03-08T19:31:19;5.1;;;2.2;;
51515;SDS011;37603;55.614;37.326;2024-03-08T19:37:17;5.8;;;4.6;;
51515;SDS011;37603;55.614;37.326;2024-03-08T19:43:16;5.2;;;2.1;;
51515;SDS011;37603;55.614;37.326;2024-03-08T19:49:15;4.9;;;2.2;;
51515;SDS011;37603;55.614;37.326;2024-03-08T19:55:14;5.8;;;2.4;;
51515;SDS011;37603;55.614;37.326;2024-03-08T20:01:12;7.4;;;2.5;;
51515;SDS011;37603;55.614;37.326;2024-03-08T20:07:11;5.5;;;2.2;;
51515;SDS011;37603;55.614;37.326;2024-03-08T20:13:10;6.5;;;4.3;;
51515;SDS011;37603;55.614;37.326;2024-03-08T20:19:09;5.1;;;3.9;;
51515;SDS011;37603;55.614;37.326;2024-03-08T20:25:07;4.7;;;2.0;;
51515;SDS011;37603;55.614;37.326;2024-03-08T20:31:06;5.3;;;3.9;;
51515;SDS011;37603;55.614;37.326;2024-03-08T20:37:05;4.2;;;2.9;;
51515;SDS011;37603;55.614;37.326;2024-03-08T20:43:04;3.3;;;1.6;;
51515;SDS011;37603;55.614;37.326;2024-03-08T20:49:02;5.4;;;1.1;;
51515;SDS011;37603;55.614;37.326;2024-03-08T20:55:01;3.0;;;1.2;;
51515;SDS011;37603;55.614;37.326;2024-03-08T21:01:00;3.4;;;2.3;;
51515;SDS011;37603;55.614;37.326;2024-03-08T21:06:58;3.0;;;1.2;;
51515;SDS011;37603;55.614;37.326;2024-03-08T21:12:57;3.7;;;1.5;;
51515;SDS011;37603;55.614;37.326;2024-03-08T21:18:56;3.6;;;2.5;;
51515;SDS011;37603;55.614;37.326;2024-03-08T21:24:54;4.1;;;2.8;;
51515;SDS011;37603;55.614;37.326;2024-03-08T21:30:53;3.0;;;2.1;;
51515;SDS011;37603;55.614;37.326;2024-03-08T21:36:52;2.4;;;1.4;;
51515;SDS011;37603;55.614;37.326;2024-03-08T21:42:53;3.0;;;2.1;;
51515;SDS011;37603;55.614;37.326;2024-03-08T21:48:49;2.3;;;0.7;;
51515;SDS011;37603;55.614;37.326;2024-03-08T21:54:48;2.7;;;1.6;;
51515;SDS011;37603;55.614;37.326;2024-03-08T22:00:47;2.3;;;1.7;;
51515;SDS011;37603;55.614;37.326;2024-03-08T22:06:46;1.6;;;0.9;;
51515;SDS011;37603;55.614;37.326;2024-03-08T22:12:44;1.4;;;1.2;;
51515;SDS011;37603;55.614;37.326;2024-03-08T22:18:43;2.8;;;1.3;;
51515;SDS011;37603;55.614;37.326;2024-03-08T22:24:42;2.3;;;0.8;;
51515;SDS011;37603;55.614;37.326;2024-03-08T22:30:40;1.8;;;0.7;;
51515;SDS011;37603;55.614;37.326;2024-03-08T22:36:39;0.8;;;0.5;;
51515;SDS011;37603;55.614;37.326;2024-03-08T22:42:38;1.5;;;1.1;;
51515;SDS011;37603;55.614;37.326;2024-03-08T22:54:35;2.8;;;0.9;;
51515;SDS011;37603;55.614;37.326;2024-03-08T23:00:34;1.9;;;1.1;;
51515;SDS011;37603;55.614;37.326;2024-03-08T23:06:33;1.8;;;1.2;;
51515;SDS011;37603;55.614;37.326;2024-03-08T23:12:31;3.0;;;1.3;;
51515;SDS011;37603;55.614;37.326;2024-03-08T23:18:30;1.7;;;0.8;;
51515;SDS011;37603;55.614;37.326;2024-03-08T23:24:29;1.6;;;0.6;;
51515;SDS011;37603;55.614;37.326;2024-03-08T23:30:28;2.7;;;1.5;;
51515;SDS011;37603;55.614;37.326;2024-03-08T23:42:25;1.5;;;0.6;;
51515;SDS011;37603;55.614;37.326;2024-03-08T23:48:23;1.7;;;0.6;;
51515;SDS011;37603;55.614;37.326;2024-03-08T23:54:22;2.1;;;1.1;;
